Time;durP1;ratioP1;P1;durP2;ratioP2;P2;SDS_P1;SDS_P2;PMS_P1;PMS_P2;Temp;Humidity;BMP_temperature;BMP_pressure;BME280_temperature;BME280_humidity;BME280_pressure;Samples;Min_cycle;Max_cycle;Signal;HPM_P1;HPM_P2
2023/12/27 00:02:08;;;;;;;1.50;1.00;;;;;;;7.10;77.88;98763.98;107229;1260;72425;-78
2023/12/27 00:04:36;;;;;;;1.80;1.20;;;;;;;7.11;78.30;98764.20;105911;1258;73801;-78
2023/12/27 00:07:04;;;;;;;2.10;1.10;;;;;;;7.17;78.10;98764.36;105874;1262;60454;-80
2023/12/27 00:09:31;;;;;;;1.20;0.80;;;;;;;7.13;78.13;98767.50;106312;1258;60147;-78
2023/12/27 00:11:59;;;;;;;3.10;1.10;;;;;;;7.06;77.99;98766.87;106832;1257;73564;-82
2023/12/27 00:14:26;;;;;;;1.20;0.90;;;;;;;7.00;78.40;98762.73;106451;1257;69094;-81
2023/12/27 00:16:55;;;;;;;2.60;1.20;;;;;;;7.04;78.43;98764.77;105722;1260;72899;-80
2023/12/27 00:19:22;;;;;;;3.10;1.10;;;;;;;7.09;78.22;98766.66;105654;1258;60481;-79
2023/12/27 00:21:50;;;;;;;1.70;1.00;;;;;;;7.02;78.04;98765.82;105736;1257;60544;-79
2023/12/27 00:24:18;;;;;;;1.10;0.80;;;;;;;6.94;78.53;98768.55;105674;1258;72831;-81
2023/12/27 00:26:46;;;;;;;1.00;0.90;;;;;;;6.86;78.96;98770.38;105518;1262;68761;-82
2023/12/27 00:29:13;;;;;;;1.30;1.00;;;;;;;6.92;79.05;98776.95;105532;1258;72711;-81
2023/12/27 00:31:41;;;;;;;2.80;1.20;;;;;;;6.97;78.89;98785.63;105892;1258;60480;-76
2023/12/27 00:34:08;;;;;;;1.50;1.10;;;;;;;6.94;79.11;98791.81;106901;1257;60399;-77
2023/12/27 00:36:36;;;;;;;1.10;1.00;;;;;;;6.88;79.16;98781.99;107428;1259;72675;-80
2023/12/27 00:39:05;;;;;;;1.80;1.10;;;;;;;6.89;79.16;98770.64;106495;1260;69550;-83
2023/12/27 00:41:34;;;;;;;1.20;0.90;;;;;;;6.99;79.05;98764.08;105745;1259;71850;-80
2023/12/27 00:44:02;;;;;;;2.20;1.30;;;;;;;7.00;78.94;98767.80;105504;1257;60424;-80
2023/12/27 00:46:29;;;;;;;2.50;1.00;;;;;;;6.94;79.21;98771.69;106210;1258;61002;-81
2023/12/27 00:48:57;;;;;;;1.20;1.00;;;;;;;6.88;79.36;98772.98;106064;1257;72627;-76
2023/12/27 00:51:24;;;;;;;1.10;0.90;;;;;;;6.93;79.38;98780.27;106156;1259;70825;-78
2023/12/27 00:53:52;;;;;;;2.30;1.20;;;;;;;6.94;79.75;98779.48;106236;1257;72709;-78
2023/12/27 00:56:21;;;;;;;2.40;0.90;;;;;;;6.84;80.29;98774.52;106152;1262;60455;-81
2023/12/27 00:58:49;;;;;;;1.20;1.00;;;;;;;6.74;80.78;98779.30;105996;1256;60376;-78
2023/12/27 01:01:17;;;;;;;1.30;1.00;;;;;;;6.71;81.38;98778.77;106159;1258;75165;-78
2023/12/27 01:03:44;;;;;;;2.20;1.10;;;;;;;6.73;81.77;98778.39;106332;1262;68965;-79
2023/12/27 01:06:12;;;;;;;1.00;0.90;;;;;;;6.63;82.33;98780.66;108445;1257;71398;-78
2023/12/27 01:08:40;;;;;;;2.90;1.00;;;;;;;6.51;83.42;98779.30;107610;1257;60444;-77
2023/12/27 01:11:07;;;;;;;1.80;1.10;;;;;;;6.50;83.79;98776.79;108029;1257;59182;-77
2023/12/27 01:13:35;;;;;;;1.30;1.10;;;;;;;6.54;84.38;98778.14;109015;1256;72469;-80
2023/12/27 01:16:03;;;;;;;2.10;1.30;;;;;;;6.48;84.99;98778.36;108832;1262;70709;-77
2023/12/27 01:18:31;;;;;;;2.10;1.40;;;;;;;6.40;85.93;98781.02;106437;1258;72544;-79
2023/12/27 01:20:59;;;;;;;1.50;1.20;;;;;;;6.39;86.68;98784.17;106211;1262;60714;-78
2023/12/27 01:23:27;;;;;;;1.70;1.10;;;;;;;6.39;87.47;98782.36;106074;1258;60517;-81
2023/12/27 01:25:55;;;;;;;1.70;1.20;;;;;;;6.29;88.47;98782.00;106455;1258;73962;-80
2023/12/27 01:28:22;;;;;;;1.90;1.40;;;;;;;6.24;88.66;98776.30;107006;1259;68822;-76
2023/12/27 01:30:50;;;;;;;2.30;1.70;;;;;;;6.24;89.32;98773.91;106748;1259;71417;-77
2023/12/27 01:33:18;;;;;;;4.10;2.40;;;;;;;6.18;89.84;98771.65;105678;1259;60534;-77
2023/12/27 01:35:46;;;;;;;4.90;2.30;;;;;;;6.09;90.64;98767.25;105633;1259;60959;-80
2023/12/27 01:38:13;;;;;;;4.50;2.60;;;;;;;6.11;90.83;98761.23;105675;1257;73003;-80
2023/12/27 01:40:50;;;;;;;3.00;1.80;;;;;;;6.11;90.63;98753.56;105743;1260;70169;-79
2023/12/27 01:43:18;;;;;;;3.20;2.20;;;;;;;6.03;91.03;98759.68;106623;1262;71738;-77
2023/12/27 01:45:46;;;;;;;4.40;2.40;;;;;;;6.02;91.21;98766.36;106501;1257;63393;-78
2023/12/27 01:48:13;;;;;;;4.20;2.50;;;;;;;6.08;91.04;98756.98;106648;1261;60063;-77
2023/12/27 01:50:42;;;;;;;4.30;2.80;;;;;;;6.04;91.02;98762.48;106782;1257;72967;-78
2023/12/27 01:53:10;;;;;;;4.30;2.90;;;;;;;5.98;91.24;98769.00;105516;1260;70150;-78
2023/12/27 01:55:37;;;;;;;4.30;2.40;;;;;;;6.01;91.12;98774.09;105501;1259;72705;-77
2023/12/27 01:58:08;;;;;;;3.30;2.40;;;;;;;5.99;91.05;98775.86;105587;1260;61184;-77
2023/12/27 02:00:39;;;;;;;3.80;2.40;;;;;;;5.90;91.25;98782.41;105580;1259;60353;-78
2023/12/27 02:03:09;;;;;;;3.20;1.70;;;;;;;5.95;91.04;98781.27;105619;1257;74079;-80
2023/12/27 02:05:37;;;;;;;3.60;2.20;;;;;;;6.01;90.82;98785.36;105699;1262;70492;-77
2023/12/27 02:08:05;;;;;;;2.50;1.90;;;;;;;5.97;90.70;98777.48;105701;1262;71537;-75
2023/12/27 02:10:32;;;;;;;4.60;2.20;;;;;;;5.94;90.58;98778.33;105761;1264;62665;-75
2023/12/27 02:13:04;;;;;;;2.80;1.80;;;;;;;6.02;90.04;98782.22;105714;1260;60359;-77
2023/12/27 02:15:32;;;;;;;2.60;1.70;;;;;;;6.12;89.25;98785.77;105809;1262;72922;-76
2023/12/27 02:18:02;;;;;;;3.70;2.50;;;;;;;6.13;88.58;98788.46;108091;1259;68862;-79
2023/12/27 02:20:30;;;;;;;3.20;2.10;;;;;;;6.13;88.51;98789.04;107814;1257;70232;-77
2023/12/27 02:22:58;;;;;;;3.10;1.60;;;;;;;6.15;88.11;98782.15;107374;1258;61337;-78
2023/12/27 02:25:26;;;;;;;3.90;1.90;;;;;;;6.22;87.24;98787.14;106964;1257;60280;-79
2023/12/27 02:27:54;;;;;;;5.60;2.80;;;;;;;6.21;86.61;98787.42;105862;1258;72357;-79
2023/12/27 02:30:22;;;;;;;2.70;1.70;;;;;;;6.14;86.11;98792.92;105822;1259;70472;-78
2023/12/27 02:32:50;;;;;;;2.80;1.70;;;;;;;6.16;86.04;98790.45;105711;1260;71449;-75
2023/12/27 02:35:18;;;;;;;3.30;1.80;;;;;;;6.18;85.66;98791.78;105698;1259;60527;-76
2023/12/27 02:37:46;;;;;;;5.70;2.00;;;;;;;6.13;85.56;98794.50;105642;1256;60643;-75
2023/12/27 02:40:14;;;;;;;3.50;1.80;;;;;;;6.10;85.68;98791.79;105601;1259;73865;-79
2023/12/27 02:42:41;;;;;;;3.10;1.90;;;;;;;6.14;85.66;98792.92;105659;1257;69067;-78
2023/12/27 02:45:09;;;;;;;2.90;1.70;;;;;;;6.11;85.73;98784.84;105522;1260;71982;-77
2023/12/27 02:47:36;;;;;;;2.80;1.70;;;;;;;6.05;86.07;98783.11;105493;1257;60442;-75
2023/12/27 02:50:05;;;;;;;2.50;1.70;;;;;;;6.06;86.02;98778.67;105531;1263;60423;-74
2023/12/27 02:52:34;;;;;;;3.60;1.50;;;;;;;6.09;85.77;98781.39;105540;1256;73838;-78
2023/12/27 02:55:01;;;;;;;3.50;2.10;;;;;;;6.04;86.07;98783.45;105639;1262;71251;-74
2023/12/27 02:57:29;;;;;;;6.30;3.40;;;;;;;5.98;86.26;98783.77;105562;1262;71621;-76
2023/12/27 02:59:56;;;;;;;3.60;2.20;;;;;;;6.02;86.40;98790.52;105629;1259;61723;-76
2023/12/27 03:02:24;;;;;;;2.40;1.60;;;;;;;6.07;85.89;98785.42;105525;1259;60487;-79
2023/12/27 03:04:51;;;;;;;2.50;1.90;;;;;;;6.04;85.66;98775.04;105616;1263;72648;-76
2023/12/27 03:07:19;;;;;;;4.10;2.00;;;;;;;6.01;85.36;98772.84;105567;1261;70234;-78
2023/12/27 03:09:47;;;;;;;3.10;1.80;;;;;;;6.08;84.71;98771.74;105534;1259;71140;-77
2023/12/27 03:12:14;;;;;;;3.40;1.70;;;;;;;6.09;83.88;98770.23;105914;1258;60445;-75
2023/12/27 03:14:42;;;;;;;3.20;2.10;;;;;;;6.02;83.45;98770.59;107706;1258;60442;-75
2023/12/27 03:17:10;;;;;;;2.80;1.40;;;;;;;5.95;82.95;98769.77;107059;1257;72766;-75
2023/12/27 03:19:38;;;;;;;3.50;1.90;;;;;;;5.97;82.12;98773.44;105843;1259;70586;-79
2023/12/27 03:22:05;;;;;;;4.60;2.20;;;;;;;6.02;81.59;98776.48;106660;1259;72861;-77
2023/12/27 03:24:33;;;;;;;3.30;2.00;;;;;;;5.99;80.59;98780.60;107316;1258;60397;-79
2023/12/27 03:27:01;;;;;;;4.20;1.80;;;;;;;5.99;80.21;98779.77;107196;1259;59560;-76
2023/12/27 03:29:28;;;;;;;3.80;1.70;;;;;;;6.00;80.15;98777.14;107647;1258;72648;-78
2023/12/27 03:31:56;;;;;;;2.30;1.60;;;;;;;6.11;79.44;98775.52;105985;1262;70741;-78
2023/12/27 03:34:23;;;;;;;3.80;1.70;;;;;;;6.14;79.22;98773.41;105777;1259;72335;-77
2023/12/27 03:36:51;;;;;;;2.80;1.80;;;;;;;6.10;78.70;98769.91;105827;1258;60722;-77
2023/12/27 03:39:18;;;;;;;2.20;1.50;;;;;;;6.09;78.84;98769.31;105852;1259;60416;-77
2023/12/27 03:41:46;;;;;;;2.70;1.80;;;;;;;6.13;78.49;98775.80;105695;1258;72115;-78
2023/12/27 03:44:13;;;;;;;4.20;1.60;;;;;;;6.22;77.97;98770.41;105786;1259;70342;-78
2023/12/27 03:46:41;;;;;;;5.20;1.90;;;;;;;6.22;77.70;98763.95;105919;1262;75327;-77
2023/12/27 03:49:10;;;;;;;4.50;1.80;;;;;;;6.16;77.01;98762.13;105637;1258;60577;-76
2023/12/27 03:51:37;;;;;;;4.30;2.10;;;;;;;6.12;76.96;98758.74;105649;1261;60497;-77
2023/12/27 03:54:05;;;;;;;5.20;3.10;;;;;;;6.17;77.07;98754.36;105665;1258;71550;-76
2023/12/27 03:56:32;;;;;;;3.10;2.00;;;;;;;6.22;76.23;98755.91;105648;1260;70312;-75
2023/12/27 03:59:03;;;;;;;2.90;1.60;;;;;;;6.18;76.52;98753.36;105540;1259;73107;-75
2023/12/27 04:01:31;;;;;;;2.40;1.50;;;;;;;6.07;76.08;98757.98;105556;1262;60441;-77
2023/12/27 04:03:58;;;;;;;3.50;1.40;;;;;;;6.01;76.35;98752.86;105863;1258;62183;-77
2023/12/27 04:06:26;;;;;;;3.10;1.50;;;;;;;6.02;76.38;98756.56;106726;1257;72606;-78
2023/12/27 04:08:54;;;;;;;2.70;1.70;;;;;;;6.07;76.15;98761.50;108114;1259;68725;-78
2023/12/27 04:11:21;;;;;;;4.70;2.90;;;;;;;6.05;76.31;98765.42;107124;1262;71666;-78
2023/12/27 04:13:49;;;;;;;3.50;1.80;;;;;;;6.02;76.16;98760.83;107157;1259;59453;-79
2023/12/27 04:16:16;;;;;;;3.10;1.70;;;;;;;6.02;76.38;98763.95;106366;1262;60426;-79
2023/12/27 04:18:44;;;;;;;4.60;1.90;;;;;;;6.12;76.11;98759.89;106658;1262;73833;-77
2023/12/27 04:21:11;;;;;;;2.80;1.50;;;;;;;6.15;75.98;98763.98;107037;1262;69141;-77
2023/12/27 04:23:39;;;;;;;2.50;1.60;;;;;;;6.11;75.69;98766.71;106697;1262;71408;-78
2023/12/27 04:26:08;;;;;;;3.40;1.60;;;;;;;6.10;75.71;98770.36;105897;1259;60410;-77
2023/12/27 04:28:35;;;;;;;5.20;1.90;;;;;;;6.08;75.72;98771.07;105770;1257;60524;-76
2023/12/27 04:31:03;;;;;;;2.50;1.80;;;;;;;6.17;75.46;98772.42;105727;1262;73859;-76
2023/12/27 04:33:31;;;;;;;4.50;2.20;;;;;;;6.17;75.44;98771.84;106027;1262;70317;-80
2023/12/27 04:35:59;;;;;;;4.10;2.30;;;;;;;6.15;75.63;98768.09;105725;1259;72877;-76
2023/12/27 04:38:27;;;;;;;5.00;1.90;;;;;;;6.10;75.76;98771.73;105669;1258;60521;-75
2023/12/27 04:40:55;;;;;;;4.60;2.40;;;;;;;6.10;75.99;98773.83;105897;1259;60565;-76
2023/12/27 04:43:22;;;;;;;4.70;2.30;;;;;;;6.18;75.81;98768.92;105784;1260;72591;-76
2023/12/27 04:45:51;;;;;;;2.90;1.90;;;;;;;6.16;75.63;98778.92;105621;1263;68892;-78
2023/12/27 04:48:19;;;;;;;3.40;1.70;;;;;;;6.08;75.18;98774.92;105681;1262;73667;-76
2023/12/27 04:50:47;;;;;;;2.50;1.80;;;;;;;6.01;75.56;98777.91;105822;1262;60448;-78
2023/12/27 04:53:14;;;;;;;3.70;1.60;;;;;;;6.01;75.34;98785.02;105651;1259;60533;-78
2023/12/27 04:55:42;;;;;;;3.20;1.50;;;;;;;6.07;75.02;98768.55;105598;1260;75336;-77
2023/12/27 04:58:09;;;;;;;4.70;1.80;;;;;;;6.03;75.08;98777.94;105683;1260;72569;-78
2023/12/27 05:00:37;;;;;;;3.60;1.60;;;;;;;5.94;75.11;98785.38;107856;1258;71737;-77
2023/12/27 05:03:05;;;;;;;3.70;1.70;;;;;;;5.86;75.16;98783.25;107734;1257;59736;-73
2023/12/27 05:05:35;;;;;;;3.70;1.90;;;;;;;5.85;75.24;98779.73;106454;1263;60530;-77
2023/12/27 05:08:03;;;;;;;4.80;2.00;;;;;;;5.90;74.92;98781.16;106462;1259;72553;-77
2023/12/27 05:10:31;;;;;;;6.40;1.80;;;;;;;5.85;74.72;98781.70;105657;1264;69343;-80
2023/12/27 05:12:58;;;;;;;1.90;1.50;;;;;;;5.77;74.90;98785.02;105607;1265;72735;-75
2023/12/27 05:15:26;;;;;;;2.80;1.80;;;;;;;5.67;74.98;98781.06;105790;1260;60578;-75
2023/12/27 05:17:53;;;;;;;2.90;1.40;;;;;;;5.66;75.22;98773.36;106151;1257;62064;-77
2023/12/27 05:20:22;;;;;;;3.10;1.50;;;;;;;5.70;75.41;98779.09;106284;1261;73801;-76
2023/12/27 05:22:49;;;;;;;4.00;1.80;;;;;;;5.64;75.31;98779.01;105608;1259;70518;-76
2023/12/27 05:25:17;;;;;;;3.60;1.90;;;;;;;5.56;75.44;98780.01;105705;1260;72727;-78
2023/12/27 05:27:44;;;;;;;2.90;1.40;;;;;;;5.51;75.31;98782.22;105631;1257;60436;-74
2023/12/27 05:30:12;;;;;;;3.80;1.90;;;;;;;5.58;75.57;98778.19;105714;1257;60345;-77
2023/12/27 05:32:40;;;;;;;2.10;1.80;;;;;;;5.68;75.45;98777.34;106114;1259;75225;-78
2023/12/27 05:35:10;;;;;;;4.30;2.30;;;;;;;5.69;75.41;98782.35;105963;1262;69464;-79
2023/12/27 05:37:37;;;;;;;4.50;2.20;;;;;;;5.67;75.45;98784.10;106550;1258;71490;-78
2023/12/27 05:40:06;;;;;;;4.50;2.20;;;;;;;5.65;75.41;98779.77;107251;1258;60426;-79
2023/12/27 05:42:33;;;;;;;3.30;1.80;;;;;;;5.71;75.30;98782.49;107224;1259;61324;-80
2023/12/27 05:45:01;;;;;;;5.20;2.80;;;;;;;5.81;75.15;98778.83;105992;1263;72792;-77
2023/12/27 05:47:28;;;;;;;4.40;2.30;;;;;;;5.80;75.03;98781.58;105727;1259;71253;-80
2023/12/27 05:49:56;;;;;;;4.30;2.30;;;;;;;5.76;74.80;98784.57;105767;1260;72770;-79
2023/12/27 05:52:23;;;;;;;4.50;2.00;;;;;;;5.75;75.12;98778.05;105904;1259;61563;-78
2023/12/27 05:54:51;;;;;;;3.70;1.80;;;;;;;5.81;75.20;98774.56;108741;1262;59200;-82
2023/12/27 05:57:18;;;;;;;4.00;2.20;;;;;;;5.86;75.08;98770.17;108380;1259;73004;-81
2023/12/27 05:59:46;;;;;;;5.40;2.00;;;;;;;5.85;75.06;98769.45;106216;1263;69010;-79
2023/12/27 06:02:13;;;;;;;3.10;1.80;;;;;;;5.82;75.28;98775.96;107279;1263;71421;-85
2023/12/27 06:04:41;;;;;;;2.70;1.70;;;;;;;5.79;75.24;98783.03;107196;1261;60422;-84
2023/12/27 06:07:09;;;;;;;4.90;1.60;;;;;;;5.85;75.18;98788.59;106268;1257;60549;-85
2023/12/27 06:09:43;;;;;;;3.60;1.80;;;;;;;5.94;74.31;98784.73;106663;1260;74623;-83
2023/12/27 06:12:12;;;;;;;2.70;2.00;;;;;;;5.95;74.11;98800.17;106841;1260;70598;-83
2023/12/27 06:14:40;;;;;;;6.20;1.90;;;;;;;5.92;73.85;98802.24;107077;1260;71501;-84
2023/12/27 06:17:23;;;;;;;3.00;2.00;;;;;;;5.83;74.16;98795.27;105768;1263;530286;-83
2023/12/27 06:21:54;;;;;;;3.90;2.10;;;;;;;5.96;74.70;98831.89;103979;1291;618049;-84
2023/12/27 06:24:22;;;;;;;1.90;1.50;;;;;;;5.94;76.01;98860.92;106935;1267;59286;-84
2023/12/27 06:26:50;;;;;;;1.50;1.00;;;;;;;5.74;76.29;98878.45;105905;1266;59689;-86
2023/12/27 06:29:23;;;;;;;1.10;0.80;;;;;;;5.47;76.81;98865.09;105424;1273;73543;-83
2023/12/27 06:33:13;;;;;;;1.80;1.30;;;;;;;5.03;77.28;98846.50;105856;1268;70676;-81
2023/12/27 06:35:22;;;;;;;1.40;1.00;;;;;;;4.35;78.95;98845.30;103761;1261;3363584;-81
2023/12/27 06:37:55;;;;;;;0.90;0.70;;;;;;;4.01;80.43;98831.43;106389;1270;62767;-85
2023/12/27 06:40:37;;;;;;;0.80;0.80;;;;;;;3.92;81.11;98837.27;106802;1261;59897;-85
2023/12/27 06:43:13;;;;;;;3.10;1.00;;;;;;;3.77;81.69;98841.84;106468;1264;71284;-84
2023/12/27 06:45:41;;;;;;;3.90;1.30;;;;;;;3.64;82.43;98841.32;108025;1262;68141;-83
2023/12/27 06:48:08;;;;;;;2.20;0.80;;;;;;;3.57;82.56;98846.83;108696;1261;71308;-83
2023/12/27 06:50:35;;;;;;;2.00;1.00;;;;;;;3.67;82.46;98845.03;108715;1260;60199;-83
2023/12/27 06:53:03;;;;;;;1.80;1.10;;;;;;;3.79;82.63;98840.97;106967;1260;59591;-86
2023/12/27 06:55:31;;;;;;;1.50;1.10;;;;;;;3.82;83.74;98838.58;107445;1259;72344;-82
2023/12/27 06:57:59;;;;;;;2.70;1.50;;;;;;;3.85;84.10;98848.08;107176;1260;69037;-84
2023/12/27 07:00:30;;;;;;;2.50;1.40;;;;;;;3.91;84.31;98848.17;106750;1260;71285;-83
2023/12/27 07:02:59;;;;;;;4.20;1.80;;;;;;;4.08;84.58;98850.04;106590;1260;61160;-81
2023/12/27 07:05:27;;;;;;;5.10;1.90;;;;;;;4.18;85.01;98856.51;106977;1256;59688;-82
2023/12/27 07:07:56;;;;;;;3.30;1.70;;;;;;;4.20;85.44;98859.95;106753;1256;73098;-81
2023/12/27 07:10:23;;;;;;;2.90;1.70;;;;;;;4.22;85.86;98852.56;106555;1256;70881;-81
2023/12/27 07:12:50;;;;;;;3.70;2.10;;;;;;;4.35;85.42;98849.53;106977;1251;72728;-81
2023/12/27 07:15:19;;;;;;;3.70;2.10;;;;;;;4.47;85.11;98851.38;107298;1252;58963;-83
2023/12/27 07:17:46;;;;;;;5.30;2.20;;;;;;;4.48;84.91;98864.24;107293;1255;60362;-80
2023/12/27 07:20:14;;;;;;;4.60;2.70;;;;;;;4.48;84.75;98865.30;107307;1254;73003;-82
2023/12/27 07:22:41;;;;;;;4.30;2.00;;;;;;;4.51;84.16;98870.04;107457;1251;70627;-82
2023/12/27 07:25:10;;;;;;;3.60;2.40;;;;;;;4.65;83.48;98876.99;106637;1253;72775;-81
2023/12/27 07:27:38;;;;;;;2.70;1.90;;;;;;;4.69;83.17;98885.34;106776;1251;60172;-80
2023/12/27 07:30:07;;;;;;;4.80;2.60;;;;;;;4.69;83.35;98893.71;106760;1258;59668;-81
2023/12/27 07:32:35;;;;;;;4.70;1.90;;;;;;;4.68;83.17;98903.09;106691;1253;71515;-84
2023/12/27 07:35:04;;;;;;;2.80;1.40;;;;;;;4.69;83.06;98906.34;106758;1253;69618;-81
2023/12/27 07:37:33;;;;;;;3.20;1.80;;;;;;;4.81;81.34;98908.02;107093;1253;72589;-84
2023/12/27 07:40:00;;;;;;;3.40;1.90;;;;;;;4.89;80.30;98915.42;107557;1252;59266;-79
2023/12/27 07:42:29;;;;;;;3.80;1.60;;;;;;;4.90;79.53;98927.77;109062;1251;59539;-81
2023/12/27 07:44:56;;;;;;;4.10;1.50;;;;;;;4.88;77.35;98937.98;108396;1253;71784;-82
2023/12/27 07:47:24;;;;;;;2.20;1.40;;;;;;;4.84;77.09;98929.80;107444;1253;70887;-85
2023/12/27 07:49:55;;;;;;;2.60;1.10;;;;;;;4.87;76.67;98941.06;107622;1253;71425;-81
2023/12/27 07:52:24;;;;;;;4.10;1.50;;;;;;;4.94;76.18;98938.11;107327;1253;59538;-81
2023/12/27 07:54:52;;;;;;;2.00;1.10;;;;;;;4.90;75.71;98951.33;106968;1253;60106;-82
2023/12/27 07:57:20;;;;;;;2.10;1.40;;;;;;;4.83;75.55;98947.24;107372;1252;72872;-83
2023/12/27 07:59:55;;;;;;;2.80;1.30;;;;;;;4.75;75.13;98958.05;106948;1252;69106;-80
2023/12/27 08:02:22;;;;;;;2.00;1.10;;;;;;;4.69;74.88;98961.60;106853;1255;71264;-82
2023/12/27 08:04:50;;;;;;;2.90;1.00;;;;;;;4.72;75.00;98967.57;107237;1258;59927;-80
2023/12/27 08:07:17;;;;;;;2.50;1.40;;;;;;;4.70;75.00;98970.48;107741;1253;59730;-80
2023/12/27 08:09:44;;;;;;;4.10;1.50;;;;;;;4.64;74.65;98972.15;107545;1258;73072;-81
2023/12/27 08:12:11;;;;;;;2.50;1.30;;;;;;;4.55;74.21;98988.54;107183;1259;68929;-84
2023/12/27 08:14:38;;;;;;;1.90;1.40;;;;;;;4.50;74.93;98995.19;107204;1258;74025;-82
2023/12/27 08:17:07;;;;;;;3.20;1.80;;;;;;;4.51;75.46;98994.55;107390;1252;60037;-83
2023/12/27 08:19:35;;;;;;;3.10;1.60;;;;;;;4.58;74.97;98998.47;107739;1254;60207;-82
2023/12/27 08:22:03;;;;;;;2.60;1.40;;;;;;;4.55;74.91;98994.89;108011;1253;71842;-78
2023/12/27 08:24:30;;;;;;;1.40;1.30;;;;;;;4.49;74.99;99004.61;108678;1252;69147;-83
2023/12/27 08:26:57;;;;;;;1.90;1.30;;;;;;;4.44;75.10;99009.48;108530;1252;71246;-79
2023/12/27 08:29:24;;;;;;;2.70;1.60;;;;;;;4.37;75.10;99015.03;107243;1252;59660;-77
2023/12/27 08:31:51;;;;;;;2.30;1.60;;;;;;;4.37;75.12;99022.89;107146;1252;59349;-82
2023/12/27 08:34:19;;;;;;;3.20;1.60;;;;;;;4.44;75.55;99028.86;108037;1253;73150;-79
2023/12/27 08:36:48;;;;;;;1.80;1.30;;;;;;;4.42;75.45;99031.33;108103;1253;69048;-80
2023/12/27 08:39:15;;;;;;;3.00;1.60;;;;;;;4.35;75.49;99031.12;106883;1253;72342;-77
2023/12/27 08:41:42;;;;;;;3.90;1.50;;;;;;;4.28;75.51;99038.13;106202;1253;59633;-77
2023/12/27 08:44:09;;;;;;;2.90;1.40;;;;;;;4.25;75.90;99040.36;106261;1251;60216;-79
2023/12/27 08:46:36;;;;;;;3.70;1.70;;;;;;;4.34;75.77;99045.86;106477;1253;71796;-81
2023/12/27 08:49:03;;;;;;;3.80;1.70;;;;;;;4.40;76.02;99042.62;106050;1258;69227;-80
2023/12/27 08:51:30;;;;;;;2.40;1.50;;;;;;;4.42;76.01;99040.30;106287;1255;71389;-80
2023/12/27 08:53:58;;;;;;;2.60;1.50;;;;;;;4.47;75.98;99044.23;106174;1253;59638;-79
2023/12/27 08:56:25;;;;;;;4.30;1.80;;;;;;;4.52;75.42;99051.65;106087;1253;60139;-79
2023/12/27 08:58:52;;;;;;;4.80;1.60;;;;;;;4.66;74.82;99048.17;106260;1253;73020;-80
2023/12/27 09:01:18;;;;;;;1.10;0.90;;;;;;;4.83;74.15;99043.61;106577;1252;59654;-78
2023/12/27 09:03:45;;;;;;;1.60;1.30;;;;;;;4.85;72.71;99041.79;106408;1252;72768;-79
2023/12/27 09:06:12;;;;;;;2.80;1.50;;;;;;;4.82;73.17;99046.35;106474;1253;59223;-80
2023/12/27 09:08:39;;;;;;;2.00;1.30;;;;;;;4.80;73.25;99053.92;106928;1252;60200;-80
2023/12/27 09:11:06;;;;;;;2.30;1.30;;;;;;;4.73;73.18;99056.30;107736;1251;71602;-80
2023/12/27 09:13:38;;;;;;;2.60;1.00;;;;;;;4.67;73.31;99060.80;108026;1253;70659;-82
2023/12/27 09:16:05;;;;;;;2.20;1.40;;;;;;;4.65;73.54;99066.20;107043;1253;70454;-80
2023/12/27 09:18:33;;;;;;;2.40;1.50;;;;;;;4.57;73.85;99069.22;106751;1253;60280;-80
2023/12/27 09:21:06;;;;;;;2.20;1.10;;;;;;;4.57;73.73;99069.62;106741;1253;59499;-84
2023/12/27 09:23:34;;;;;;;3.50;1.50;;;;;;;4.59;73.34;99075.06;107215;1253;72839;-79
2023/12/27 09:26:00;;;;;;;2.10;1.30;;;;;;;4.60;72.98;99085.58;108718;1253;68282;-79
2023/12/27 09:28:28;;;;;;;1.90;1.30;;;;;;;4.64;73.22;99085.61;108865;1253;70428;-79
2023/12/27 09:30:55;;;;;;;1.90;1.40;;;;;;;4.78;72.09;99084.36;107092;1253;61054;-78
2023/12/27 09:33:22;;;;;;;2.80;1.30;;;;;;;4.88;71.25;99084.67;106906;1253;60162;-79
2023/12/27 09:35:49;;;;;;;3.20;1.20;;;;;;;4.87;69.92;99086.16;106683;1255;73138;-80
2023/12/27 09:38:16;;;;;;;2.10;1.30;;;;;;;4.84;68.94;99092.41;106312;1253;70346;-81
2023/12/27 09:40:43;;;;;;;1.90;1.10;;;;;;;4.80;67.79;99100.27;106236;1255;71359;-79
2023/12/27 09:43:11;;;;;;;3.30;1.10;;;;;;;4.77;67.99;99109.29;106279;1250;59766;-79
2023/12/27 09:45:38;;;;;;;3.10;1.50;;;;;;;4.73;67.79;99109.30;106448;1253;60224;-79
2023/12/27 09:48:05;;;;;;;2.70;1.40;;;;;;;4.70;68.25;99105.56;106131;1253;71735;-80
2023/12/27 09:50:32;;;;;;;2.70;1.40;;;;;;;4.66;67.87;99110.88;106625;1252;68986;-78
2023/12/27 09:52:59;;;;;;;2.30;1.20;;;;;;;4.60;66.87;99110.51;106660;1253;71910;-79
2023/12/27 09:55:26;;;;;;;2.10;1.40;;;;;;;4.56;67.05;99118.08;105977;1254;60610;-80
2023/12/27 09:57:52;;;;;;;3.20;1.50;;;;;;;4.51;66.63;99114.17;106451;1253;60167;-78
2023/12/27 10:00:19;;;;;;;1.50;1.10;;;;;;;4.46;66.23;99118.18;106871;1253;71626;-77
2023/12/27 10:02:46;;;;;;;4.40;1.70;;;;;;;4.43;66.53;99119.66;106504;1252;70179;-78
2023/12/27 10:05:21;;;;;;;1.80;1.40;;;;;;;4.44;66.77;99118.88;106671;1253;72503;-76
2023/12/27 10:07:49;;;;;;;2.00;1.50;;;;;;;4.54;66.77;99127.02;106582;1251;59717;-80
2023/12/27 10:10:18;;;;;;;1.70;1.10;;;;;;;4.54;65.94;99119.89;106053;1253;60391;-77
2023/12/27 10:12:57;;;;;;;2.20;1.10;;;;;;;4.51;66.05;99119.42;106305;1253;73071;-77
2023/12/27 10:15:24;;;;;;;2.30;1.10;;;;;;;4.48;66.36;99117.62;107812;1253;71474;-77
2023/12/27 10:17:51;;;;;;;3.10;1.30;;;;;;;4.46;66.87;99118.84;106941;1255;70431;-78
2023/12/27 10:20:36;;;;;;;2.30;1.10;;;;;;;4.44;67.62;99126.23;106465;1256;59506;-78
2023/12/27 10:23:03;;;;;;;3.00;1.40;;;;;;;4.41;67.38;99129.66;106272;1253;60301;-77
2023/12/27 10:25:32;;;;;;;2.30;1.30;;;;;;;4.37;67.51;99129.53;106409;1256;73033;-76
2023/12/27 10:27:59;;;;;;;2.40;1.20;;;;;;;4.33;67.24;99128.09;106265;1253;69078;-79
2023/12/27 10:30:26;;;;;;;1.60;1.10;;;;;;;4.31;66.98;99128.43;106682;1253;73646;-79
2023/12/27 10:33:00;;;;;;;3.10;1.10;;;;;;;4.30;67.20;99132.57;107176;1253;59363;-82
2023/12/27 10:35:31;;;;;;;2.20;1.10;;;;;;;4.33;67.59;99134.05;107749;1253;60389;-83
2023/12/27 10:38:04;;;;;;;2.00;1.30;;;;;;;4.49;67.46;99137.10;107311;1252;72890;-85
2023/12/27 10:40:34;;;;;;;2.40;1.20;;;;;;;4.57;67.02;99138.36;108781;1252;68958;-83
2023/12/27 10:43:02;;;;;;;1.80;1.20;;;;;;;4.59;66.54;99138.17;108468;1252;71293;-83
2023/12/27 10:45:30;;;;;;;1.70;1.00;;;;;;;4.62;66.76;99135.61;108681;1251;59333;-82
2023/12/27 10:48:04;;;;;;;1.70;1.20;;;;;;;4.65;66.90;99136.57;108414;1253;59086;-80
2023/12/27 10:50:34;;;;;;;2.10;1.30;;;;;;;4.69;66.28;99139.52;108458;1252;72500;-80
2023/12/27 10:53:03;;;;;;;2.80;1.50;;;;;;;4.70;66.35;99141.67;108731;1252;69267;-83
2023/12/27 10:55:31;;;;;;;2.00;1.40;;;;;;;4.71;65.92;99146.48;108377;1251;71157;-81
2023/12/27 10:58:05;;;;;;;2.70;1.60;;;;;;;4.70;66.13;99155.37;108199;1253;60246;-80
2023/12/27 11:00:32;;;;;;;2.20;1.20;;;;;;;4.67;65.99;99152.98;108328;1255;59166;-81
2023/12/27 11:02:59;;;;;;;2.30;1.30;;;;;;;4.63;66.04;99150.40;106741;1254;74091;-79
2023/12/27 11:05:27;;;;;;;2.30;1.30;;;;;;;4.60;65.82;99148.64;107000;1253;70496;-79
2023/12/27 11:07:54;;;;;;;2.50;1.40;;;;;;;4.56;66.05;99157.77;109204;1253;73878;-80
2023/12/27 11:10:22;;;;;;;2.90;1.40;;;;;;;4.54;66.67;99155.11;108790;1252;60422;-78
2023/12/27 11:12:50;;;;;;;2.60;1.20;;;;;;;4.58;66.68;99157.38;106312;1257;60537;-82
2023/12/27 11:15:20;;;;;;;3.00;1.30;;;;;;;4.70;66.58;99153.91;106564;1257;72512;-79
2023/12/27 11:17:48;;;;;;;2.30;1.50;;;;;;;4.71;66.38;99152.60;106271;1252;68965;-77
2023/12/27 11:20:18;;;;;;;3.30;1.60;;;;;;;4.68;66.56;99152.73;106328;1254;70234;-79
2023/12/27 11:22:44;;;;;;;2.80;1.30;;;;;;;4.64;66.58;99155.02;106584;1253;60540;-78
2023/12/27 11:25:11;;;;;;;2.90;1.60;;;;;;;4.62;66.68;99160.31;106258;1258;61378;-77
2023/12/27 11:27:40;;;;;;;3.20;1.30;;;;;;;4.59;66.80;99160.23;106206;1253;73816;-78
2023/12/27 11:30:11;;;;;;;3.40;1.40;;;;;;;4.55;67.00;99155.38;106205;1255;68036;-78
2023/12/27 11:32:40;;;;;;;1.80;1.20;;;;;;;4.52;67.10;99162.26;106035;1254;72936;-78
2023/12/27 11:35:10;;;;;;;2.60;1.30;;;;;;;4.49;66.96;99151.85;106148;1254;60546;-79
2023/12/27 11:37:41;;;;;;;4.80;1.60;;;;;;;4.47;67.22;99154.20;106242;1258;61308;-79
2023/12/27 11:40:10;;;;;;;3.40;1.80;;;;;;;4.46;67.31;99162.67;106292;1253;72532;-79
2023/12/27 11:42:37;;;;;;;2.20;1.00;;;;;;;4.44;67.36;99166.52;106363;1253;70405;-78